sensor_id;sensor_type;location;lat;lon;timestamp;pressure;altitude;pressure_sealevel;temperature;humidity
70198;BME280;57582;-34.876;138.628;2023-05-19T00:00:18;101921;;;13.12;72.58
70198;BME280;57582;-34.876;138.628;2023-05-19T00:03:17;101916;;;13.29;71.68
70198;BME280;57582;-34.876;138.628;2023-05-19T00:06:19;101919;;;13.37;71.24
70198;BME280;57582;-34.876;138.628;2023-05-19T00:09:17;101927;;;13.54;70.65
70198;BME280;57582;-34.876;138.628;2023-05-19T00:12:18;101926;;;13.75;69.55
70198;BME280;57582;-34.876;138.628;2023-05-19T00:15:17;101927;;;13.96;69.15
70198;BME280;57582;-34.876;138.628;2023-05-19T00:18:17;101931;;;14.05;68.37
70198;BME280;57582;-34.876;138.628;2023-05-19T00:21:17;101930;;;13.58;69.87
70198;BME280;57582;-34.876;138.628;2023-05-19T00:24:17;101927;;;13.77;70.25
70198;BME280;57582;-34.876;138.628;2023-05-19T00:27:17;101925;;;13.94;69.63
70198;BME280;57582;-34.876;138.628;2023-05-19T00:30:17;101924;;;14.04;69.45
70198;BME280;57582;-34.876;138.628;2023-05-19T00:33:17;101923;;;13.92;69.15
70198;BME280;57582;-34.876;138.628;2023-05-19T00:36:17;101927;;;13.77;69.71
70198;BME280;57582;-34.876;138.628;2023-05-19T00:39:17;101926;;;13.78;70.05
70198;BME280;57582;-34.876;138.628;2023-05-19T00:42:17;101923;;;13.88;70.00
70198;BME280;57582;-34.876;138.628;2023-05-19T00:45:17;101922;;;13.83;70.85
70198;BME280;57582;-34.876;138.628;2023-05-19T00:48:17;101918;;;13.72;71.11
70198;BME280;57582;-34.876;138.628;2023-05-19T00:51:17;101910;;;13.86;71.47
70198;BME280;57582;-34.876;138.628;2023-05-19T00:54:17;101917;;;13.59;72.55
70198;BME280;57582;-34.876;138.628;2023-05-19T00:57:17;101923;;;13.91;72.33
70198;BME280;57582;-34.876;138.628;2023-05-19T01:00:17;101922;;;13.51;71.20
70198;BME280;57582;-34.876;138.628;2023-05-19T01:03:17;101914;;;12.76;74.81
70198;BME280;57582;-34.876;138.628;2023-05-19T01:06:17;101915;;;12.75;76.12
70198;BME280;57582;-34.876;138.628;2023-05-19T01:09:17;101904;;;12.89;76.20
70198;BME280;57582;-34.876;138.628;2023-05-19T01:12:17;101910;;;12.88;76.55
70198;BME280;57582;-34.876;138.628;2023-05-19T01:15:17;101903;;;12.89;76.34
70198;BME280;57582;-34.876;138.628;2023-05-19T01:18:20;101906;;;13.18;76.25
70198;BME280;57582;-34.876;138.628;2023-05-19T01:24:23;101898;;;12.76;77.02
70198;BME280;57582;-34.876;138.628;2023-05-19T01:33:17;101885;;;12.98;78.54
70198;BME280;57582;-34.876;138.628;2023-05-19T01:36:18;101890;;;12.73;78.03
70198;BME280;57582;-34.876;138.628;2023-05-19T01:39:17;101883;;;13.06;78.01
70198;BME280;57582;-34.876;138.628;2023-05-19T01:42:17;101876;;;13.15;78.13
70198;BME280;57582;-34.876;138.628;2023-05-19T01:45:17;101877;;;13.18;78.01
70198;BME280;57582;-34.876;138.628;2023-05-19T01:48:18;101874;;;13.26;77.56
70198;BME280;57582;-34.876;138.628;2023-05-19T01:51:17;101867;;;13.08;78.96
70198;BME280;57582;-34.876;138.628;2023-05-19T01:54:17;101860;;;13.44;79.00
70198;BME280;57582;-34.876;138.628;2023-05-19T01:57:21;101855;;;13.84;78.36
70198;BME280;57582;-34.876;138.628;2023-05-19T02:00:22;101850;;;14.08;76.41
70198;BME280;57582;-34.876;138.628;2023-05-19T02:06:49;101852;;;14.74;74.63
70198;BME280;57582;-34.876;138.628;2023-05-19T02:09:22;101844;;;15.08;73.25
70198;BME280;57582;-34.876;138.628;2023-05-19T02:12:22;101836;;;14.97;72.14
70198;BME280;57582;-34.876;138.628;2023-05-19T02:15:20;101829;;;15.23;71.65
70198;BME280;57582;-34.876;138.628;2023-05-19T02:18:17;101815;;;15.44;72.58
70198;BME280;57582;-34.876;138.628;2023-05-19T02:21:17;101826;;;15.39;71.32
70198;BME280;57582;-34.876;138.628;2023-05-19T02:24:18;101809;;;15.53;70.47
70198;BME280;57582;-34.876;138.628;2023-05-19T02:27:17;101819;;;15.38;71.05
70198;BME280;57582;-34.876;138.628;2023-05-19T02:30:17;101809;;;14.58;73.46
70198;BME280;57582;-34.876;138.628;2023-05-19T02:33:17;101802;;;14.80;73.96
70198;BME280;57582;-34.876;138.628;2023-05-19T02:36:17;101785;;;15.05;73.54
70198;BME280;57582;-34.876;138.628;2023-05-19T02:39:17;101786;;;15.12;72.60
70198;BME280;57582;-34.876;138.628;2023-05-19T02:42:17;101787;;;14.97;72.71
70198;BME280;57582;-34.876;138.628;2023-05-19T02:45:17;101780;;;14.76;74.54
70198;BME280;57582;-34.876;138.628;2023-05-19T02:48:17;101772;;;15.08;73.95
70198;BME280;57582;-34.876;138.628;2023-05-19T02:51:17;101767;;;15.46;73.50
70198;BME280;57582;-34.876;138.628;2023-05-19T02:54:17;101765;;;15.82;71.84
70198;BME280;57582;-34.876;138.628;2023-05-19T02:57:17;101759;;;15.96;70.13
70198;BME280;57582;-34.876;138.628;2023-05-19T03:00:18;101752;;;15.98;70.08
70198;BME280;57582;-34.876;138.628;2023-05-19T03:03:17;101744;;;16.04;70.67
70198;BME280;57582;-34.876;138.628;2023-05-19T03:06:17;101743;;;16.19;70.44
70198;BME280;57582;-34.876;138.628;2023-05-19T03:09:17;101737;;;16.40;69.47
70198;BME280;57582;-34.876;138.628;2023-05-19T03:12:17;101734;;;16.06;69.73
70198;BME280;57582;-34.876;138.628;2023-05-19T03:15:17;101722;;;16.16;69.21
70198;BME280;57582;-34.876;138.628;2023-05-19T03:18:17;101709;;;16.47;68.75
70198;BME280;57582;-34.876;138.628;2023-05-19T03:21:17;101701;;;16.78;68.18
70198;BME280;57582;-34.876;138.628;2023-05-19T03:24:18;101700;;;16.71;68.67
70198;BME280;57582;-34.876;138.628;2023-05-19T03:27:17;101696;;;16.95;68.37
70198;BME280;57582;-34.876;138.628;2023-05-19T03:30:17;101690;;;17.17;68.04
70198;BME280;57582;-34.876;138.628;2023-05-19T03:33:17;101691;;;17.11;67.26
70198;BME280;57582;-34.876;138.628;2023-05-19T03:36:18;101687;;;17.23;66.86
70198;BME280;57582;-34.876;138.628;2023-05-19T03:39:17;101684;;;17.30;66.58
70198;BME280;57582;-34.876;138.628;2023-05-19T03:42:17;101681;;;17.05;67.30
70198;BME280;57582;-34.876;138.628;2023-05-19T03:45:17;101683;;;17.09;67.58
70198;BME280;57582;-34.876;138.628;2023-05-19T03:48:17;101680;;;16.95;67.66
70198;BME280;57582;-34.876;138.628;2023-05-19T03:51:17;101675;;;16.82;66.11
70198;BME280;57582;-34.876;138.628;2023-05-19T03:54:17;101662;;;16.74;64.88
70198;BME280;57582;-34.876;138.628;2023-05-19T03:57:17;101668;;;16.78;64.40
70198;BME280;57582;-34.876;138.628;2023-05-19T04:00:17;101657;;;16.86;62.97
70198;BME280;57582;-34.876;138.628;2023-05-19T04:03:17;101646;;;16.87;62.22
70198;BME280;57582;-34.876;138.628;2023-05-19T04:06:17;101647;;;16.95;61.49
70198;BME280;57582;-34.876;138.628;2023-05-19T04:09:17;101641;;;17.04;62.51
70198;BME280;57582;-34.876;138.628;2023-05-19T04:12:17;101638;;;17.13;62.52
70198;BME280;57582;-34.876;138.628;2023-05-19T04:15:17;101633;;;17.43;61.25
70198;BME280;57582;-34.876;138.628;2023-05-19T04:18:17;101616;;;17.80;60.25
70198;BME280;57582;-34.876;138.628;2023-05-19T04:21:17;101614;;;18.14;58.54
70198;BME280;57582;-34.876;138.628;2023-05-19T04:24:18;101621;;;18.06;56.75
70198;BME280;57582;-34.876;138.628;2023-05-19T04:27:17;101623;;;18.07;57.38
70198;BME280;57582;-34.876;138.628;2023-05-19T04:30:17;101621;;;17.86;56.82
70198;BME280;57582;-34.876;138.628;2023-05-19T04:33:17;101617;;;17.68;57.57
70198;BME280;57582;-34.876;138.628;2023-05-19T04:36:18;101627;;;17.57;57.88
70198;BME280;57582;-34.876;138.628;2023-05-19T04:39:17;101627;;;17.51;58.26
70198;BME280;57582;-34.876;138.628;2023-05-19T04:42:17;101628;;;17.48;59.18
70198;BME280;57582;-34.876;138.628;2023-05-19T04:45:17;101623;;;17.48;57.98
70198;BME280;57582;-34.876;138.628;2023-05-19T04:48:18;101630;;;17.51;57.42
70198;BME280;57582;-34.876;138.628;2023-05-19T04:51:18;101629;;;17.33;57.33
70198;BME280;57582;-34.876;138.628;2023-05-19T04:54:17;101624;;;17.39;57.92
70198;BME280;57582;-34.876;138.628;2023-05-19T04:57:17;101630;;;17.43;58.38
70198;BME280;57582;-34.876;138.628;2023-05-19T05:00:18;101629;;;17.47;57.64
70198;BME280;57582;-34.876;138.628;2023-05-19T05:03:17;101623;;;17.63;57.81
70198;BME280;57582;-34.876;138.628;2023-05-19T05:06:17;101629;;;17.68;59.79
70198;BME280;57582;-34.876;138.628;2023-05-19T05:09:17;101616;;;17.57;61.28
70198;BME280;57582;-34.876;138.628;2023-05-19T05:12:20;101612;;;17.65;61.37
70198;BME280;57582;-34.876;138.628;2023-05-19T05:15:17;101611;;;17.72;60.39
70198;BME280;57582;-34.876;138.628;2023-05-19T05:18:17;101603;;;17.61;61.14
70198;BME280;57582;-34.876;138.628;2023-05-19T05:21:17;101604;;;17.70;60.97
70198;BME280;57582;-34.876;138.628;2023-05-19T05:24:18;101608;;;17.59;59.97
70198;BME280;57582;-34.876;138.628;2023-05-19T05:27:17;101605;;;17.59;60.58
70198;BME280;57582;-34.876;138.628;2023-05-19T05:30:17;101593;;;17.69;60.65
70198;BME280;57582;-34.876;138.628;2023-05-19T05:33:17;101598;;;17.74;60.69
70198;BME280;57582;-34.876;138.628;2023-05-19T05:36:18;101595;;;17.45;60.42
70198;BME280;57582;-34.876;138.628;2023-05-19T05:39:17;101600;;;17.40;60.08
70198;BME280;57582;-34.876;138.628;2023-05-19T05:42:17;101599;;;17.31;60.60
70198;BME280;57582;-34.876;138.628;2023-05-19T05:45:17;101597;;;17.44;61.19
70198;BME280;57582;-34.876;138.628;2023-05-19T05:48:18;101594;;;17.36;64.74
70198;BME280;57582;-34.876;138.628;2023-05-19T05:51:20;101590;;;17.30;66.07
70198;BME280;57582;-34.876;138.628;2023-05-19T05:54:19;101601;;;17.32;65.33
70198;BME280;57582;-34.876;138.628;2023-05-19T05:57:17;101597;;;17.30;65.83
70198;BME280;57582;-34.876;138.628;2023-05-19T06:00:18;101593;;;17.47;66.43
70198;BME280;57582;-34.876;138.628;2023-05-19T06:03:17;101598;;;17.48;64.94
70198;BME280;57582;-34.876;138.628;2023-05-19T06:06:17;101596;;;17.71;64.49
70198;BME280;57582;-34.876;138.628;2023-05-19T06:09:17;101605;;;17.90;62.79
70198;BME280;57582;-34.876;138.628;2023-05-19T06:12:18;101596;;;18.15;61.30
70198;BME280;57582;-34.876;138.628;2023-05-19T06:15:17;101593;;;18.30;60.16
70198;BME280;57582;-34.876;138.628;2023-05-19T06:18:17;101592;;;18.09;59.97
70198;BME280;57582;-34.876;138.628;2023-05-19T06:21:17;101597;;;18.06;59.74
70198;BME280;57582;-34.876;138.628;2023-05-19T06:24:18;101590;;;18.05;58.63
70198;BME280;57582;-34.876;138.628;2023-05-19T06:27:17;101601;;;18.03;58.73
70198;BME280;57582;-34.876;138.628;2023-05-19T06:30:17;101598;;;18.00;59.02
70198;BME280;57582;-34.876;138.628;2023-05-19T06:33:17;101599;;;18.09;59.30
70198;BME280;57582;-34.876;138.628;2023-05-19T06:36:18;101592;;;18.20;59.22
70198;BME280;57582;-34.876;138.628;2023-05-19T06:39:17;101597;;;18.30;59.04
70198;BME280;57582;-34.876;138.628;2023-05-19T06:42:18;101595;;;18.36;59.45
70198;BME280;57582;-34.876;138.628;2023-05-19T06:45:17;101595;;;18.28;59.72
70198;BME280;57582;-34.876;138.628;2023-05-19T06:48:18;101587;;;18.34;59.58
70198;BME280;57582;-34.876;138.628;2023-05-19T06:51:17;101596;;;18.31;59.41
70198;BME280;57582;-34.876;138.628;2023-05-19T06:54:17;101597;;;18.43;59.29
70198;BME280;57582;-34.876;138.628;2023-05-19T06:57:17;101589;;;18.35;59.88
70198;BME280;57582;-34.876;138.628;2023-05-19T07:00:19;101589;;;18.43;59.32
70198;BME280;57582;-34.876;138.628;2023-05-19T07:03:17;101586;;;18.47;59.07
70198;BME280;57582;-34.876;138.628;2023-05-19T07:06:17;101592;;;18.54;58.90
70198;BME280;57582;-34.876;138.628;2023-05-19T07:09:17;101589;;;18.43;58.67
70198;BME280;57582;-34.876;138.628;2023-05-19T07:12:18;101598;;;18.48;58.87
70198;BME280;57582;-34.876;138.628;2023-05-19T07:15:17;101597;;;18.55;58.90
70198;BME280;57582;-34.876;138.628;2023-05-19T07:18:17;101599;;;18.58;58.60
70198;BME280;57582;-34.876;138.628;2023-05-19T07:21:17;101603;;;18.60;58.56
70198;BME280;57582;-34.876;138.628;2023-05-19T07:24:18;101602;;;18.66;58.37
70198;BME280;57582;-34.876;138.628;2023-05-19T07:27:17;101607;;;18.69;58.22
70198;BME280;57582;-34.876;138.628;2023-05-19T07:30:17;101594;;;18.68;58.05
70198;BME280;57582;-34.876;138.628;2023-05-19T07:33:18;101603;;;18.67;57.96
70198;BME280;57582;-34.876;138.628;2023-05-19T07:36:18;101601;;;18.64;58.01
70198;BME280;57582;-34.876;138.628;2023-05-19T07:39:17;101603;;;18.63;58.13
70198;BME280;57582;-34.876;138.628;2023-05-19T07:42:17;101594;;;18.60;58.12
70198;BME280;57582;-34.876;138.628;2023-05-19T07:45:17;101597;;;18.60;58.50
70198;BME280;57582;-34.876;138.628;2023-05-19T07:48:18;101590;;;18.65;59.15
70198;BME280;57582;-34.876;138.628;2023-05-19T07:51:17;101599;;;18.84;58.20
70198;BME280;57582;-34.876;138.628;2023-05-19T07:54:18;101610;;;18.94;56.98
70198;BME280;57582;-34.876;138.628;2023-05-19T07:57:17;101597;;;19.05;56.66
70198;BME280;57582;-34.876;138.628;2023-05-19T08:00:18;101599;;;19.23;55.92
70198;BME280;57582;-34.876;138.628;2023-05-19T08:03:17;101596;;;19.38;55.53
70198;BME280;57582;-34.876;138.628;2023-05-19T08:06:17;101596;;;19.51;55.08
70198;BME280;57582;-34.876;138.628;2023-05-19T08:09:17;101596;;;19.63;54.70
70198;BME280;57582;-34.876;138.628;2023-05-19T08:12:18;101601;;;19.66;54.48
70198;BME280;57582;-34.876;138.628;2023-05-19T08:15:17;101592;;;19.66;53.84
70198;BME280;57582;-34.876;138.628;2023-05-19T08:18:17;101595;;;19.63;53.31
70198;BME280;57582;-34.876;138.628;2023-05-19T08:21:17;101594;;;19.69;53.32
70198;BME280;57582;-34.876;138.628;2023-05-19T08:24:18;101601;;;19.77;53.10
70198;BME280;57582;-34.876;138.628;2023-05-19T08:27:17;101600;;;19.82;52.91
70198;BME280;57582;-34.876;138.628;2023-05-19T08:30:17;101600;;;19.81;52.61
70198;BME280;57582;-34.876;138.628;2023-05-19T08:33:17;101602;;;19.82;52.68
70198;BME280;57582;-34.876;138.628;2023-05-19T08:36:18;101598;;;19.85;52.81
70198;BME280;57582;-34.876;138.628;2023-05-19T08:39:17;101606;;;19.88;52.80
70198;BME280;57582;-34.876;138.628;2023-05-19T08:42:17;101609;;;19.88;52.93
70198;BME280;57582;-34.876;138.628;2023-05-19T08:45:17;101612;;;19.89;52.93
70198;BME280;57582;-34.876;138.628;2023-05-19T08:48:18;101608;;;19.86;53.07
70198;BME280;57582;-34.876;138.628;2023-05-19T08:51:38;101612;;;19.82;53.29
70198;BME280;57582;-34.876;138.628;2023-05-19T08:54:17;101618;;;19.77;53.50
70198;BME280;57582;-34.876;138.628;2023-05-19T08:57:17;101620;;;19.75;53.54
70198;BME280;57582;-34.876;138.628;2023-05-19T09:00:18;101626;;;19.72;53.63
70198;BME280;57582;-34.876;138.628;2023-05-19T09:03:17;101631;;;19.65;53.80
70198;BME280;57582;-34.876;138.628;2023-05-19T09:06:17;101624;;;19.57;53.87
70198;BME280;57582;-34.876;138.628;2023-05-19T09:09:17;101629;;;19.51;53.95
70198;BME280;57582;-34.876;138.628;2023-05-19T09:12:19;101635;;;19.43;54.05
70198;BME280;57582;-34.876;138.628;2023-05-19T09:15:18;101635;;;19.36;54.38
70198;BME280;57582;-34.876;138.628;2023-05-19T09:18:17;101638;;;19.31;54.67
70198;BME280;57582;-34.876;138.628;2023-05-19T09:21:17;101637;;;19.23;54.91
70198;BME280;57582;-34.876;138.628;2023-05-19T09:24:18;101634;;;19.15;54.80
70198;BME280;57582;-34.876;138.628;2023-05-19T09:27:20;101636;;;19.13;54.64
70198;BME280;57582;-34.876;138.628;2023-05-19T09:30:18;101638;;;18.92;54.34
70198;BME280;57582;-34.876;138.628;2023-05-19T09:33:19;101643;;;18.74;53.75
70198;BME280;57582;-34.876;138.628;2023-05-19T09:36:18;101640;;;18.66;53.17
70198;BME280;57582;-34.876;138.628;2023-05-19T09:39:20;101654;;;18.57;52.18
70198;BME280;57582;-34.876;138.628;2023-05-19T09:42:25;101643;;;18.55;51.99
70198;BME280;57582;-34.876;138.628;2023-05-19T09:45:18;101646;;;18.50;51.66
70198;BME280;57582;-34.876;138.628;2023-05-19T09:48:18;101645;;;18.43;51.71
70198;BME280;57582;-34.876;138.628;2023-05-19T09:51:18;101654;;;18.35;51.25
70198;BME280;57582;-34.876;138.628;2023-05-19T09:54:18;101653;;;18.31;50.77
70198;BME280;57582;-34.876;138.628;2023-05-19T09:57:18;101655;;;18.20;51.06
70198;BME280;57582;-34.876;138.628;2023-05-19T10:00:18;101653;;;18.15;51.56
70198;BME280;57582;-34.876;138.628;2023-05-19T10:03:18;101656;;;18.12;51.51
70198;BME280;57582;-34.876;138.628;2023-05-19T10:06:18;101643;;;18.03;51.03
70198;BME280;57582;-34.876;138.628;2023-05-19T10:09:22;101648;;;17.98;51.76
70198;BME280;57582;-34.876;138.628;2023-05-19T10:12:18;101647;;;17.86;52.03
70198;BME280;57582;-34.876;138.628;2023-05-19T10:15:18;101658;;;17.82;52.68
70198;BME280;57582;-34.876;138.628;2023-05-19T10:18:18;101660;;;17.75;52.85
70198;BME280;57582;-34.876;138.628;2023-05-19T10:21:18;101673;;;17.16;54.81
70198;BME280;57582;-34.876;138.628;2023-05-19T10:24:18;101669;;;17.05;56.88
70198;BME280;57582;-34.876;138.628;2023-05-19T10:27:18;101657;;;16.97;57.87
70198;BME280;57582;-34.876;138.628;2023-05-19T10:30:20;101657;;;16.86;58.56
70198;BME280;57582;-34.876;138.628;2023-05-19T10:33:18;101661;;;16.95;59.06
70198;BME280;57582;-34.876;138.628;2023-05-19T10:39:21;101657;;;17.12;59.64
70198;BME280;57582;-34.876;138.628;2023-05-19T10:42:22;101652;;;17.22;59.62
70198;BME280;57582;-34.876;138.628;2023-05-19T10:45:19;101657;;;17.27;59.37
70198;BME280;57582;-34.876;138.628;2023-05-19T10:48:19;101657;;;17.30;59.21
70198;BME280;57582;-34.876;138.628;2023-05-19T10:51:18;101656;;;17.31;59.12
70198;BME280;57582;-34.876;138.628;2023-05-19T10:54:23;101653;;;17.31;59.12
70198;BME280;57582;-34.876;138.628;2023-05-19T10:57:18;101653;;;17.34;59.25
70198;BME280;57582;-34.876;138.628;2023-05-19T11:00:28;101659;;;17.37;59.21
70198;BME280;57582;-34.876;138.628;2023-05-19T11:03:18;101652;;;17.38;58.94
70198;BME280;57582;-34.876;138.628;2023-05-19T11:09:18;101649;;;17.32;59.27
70198;BME280;57582;-34.876;138.628;2023-05-19T11:12:19;101649;;;17.28;59.78
70198;BME280;57582;-34.876;138.628;2023-05-19T11:15:18;101645;;;17.28;59.86
70198;BME280;57582;-34.876;138.628;2023-05-19T11:18:18;101640;;;17.30;59.93
70198;BME280;57582;-34.876;138.628;2023-05-19T11:21:18;101646;;;17.28;60.46
70198;BME280;57582;-34.876;138.628;2023-05-19T11:24:36;101645;;;16.94;61.94
70198;BME280;57582;-34.876;138.628;2023-05-19T11:27:18;101652;;;16.55;64.09
70198;BME280;57582;-34.876;138.628;2023-05-19T11:30:18;101653;;;16.22;65.42
70198;BME280;57582;-34.876;138.628;2023-05-19T11:33:18;101648;;;15.87;66.24
70198;BME280;57582;-34.876;138.628;2023-05-19T11:36:18;101649;;;15.42;66.79
70198;BME280;57582;-34.876;138.628;2023-05-19T11:39:19;101647;;;15.42;67.08
70198;BME280;57582;-34.876;138.628;2023-05-19T11:42:18;101642;;;15.59;66.58
70198;BME280;57582;-34.876;138.628;2023-05-19T11:45:23;101649;;;15.67;66.32
70198;BME280;57582;-34.876;138.628;2023-05-19T11:48:20;101639;;;15.76;66.56
70198;BME280;57582;-34.876;138.628;2023-05-19T11:51:19;101654;;;15.53;67.40
70198;BME280;57582;-34.876;138.628;2023-05-19T11:54:18;101651;;;15.54;67.14
70198;BME280;57582;-34.876;138.628;2023-05-19T11:57:18;101646;;;15.74;66.70
70198;BME280;57582;-34.876;138.628;2023-05-19T12:00:20;101651;;;15.96;65.85
70198;BME280;57582;-34.876;138.628;2023-05-19T12:03:20;101658;;;16.20;65.54
70198;BME280;57582;-34.876;138.628;2023-05-19T12:06:18;101651;;;16.35;65.57
70198;BME280;57582;-34.876;138.628;2023-05-19T12:09:18;101638;;;16.31;66.46
70198;BME280;57582;-34.876;138.628;2023-05-19T12:12:19;101645;;;16.41;65.68
70198;BME280;57582;-34.876;138.628;2023-05-19T12:15:18;101638;;;16.26;65.93
70198;BME280;57582;-34.876;138.628;2023-05-19T12:18:18;101648;;;15.86;68.25
70198;BME280;57582;-34.876;138.628;2023-05-19T12:21:18;101645;;;15.51;69.44
70198;BME280;57582;-34.876;138.628;2023-05-19T12:24:19;101655;;;15.54;69.74
70198;BME280;57582;-34.876;138.628;2023-05-19T12:27:20;101653;;;15.62;69.54
70198;BME280;57582;-34.876;138.628;2023-05-19T12:30:23;101650;;;15.66;69.31
70198;BME280;57582;-34.876;138.628;2023-05-19T12:33:18;101645;;;15.96;68.64
70198;BME280;57582;-34.876;138.628;2023-05-19T12:36:18;101642;;;16.19;67.86
70198;BME280;57582;-34.876;138.628;2023-05-19T12:39:18;101635;;;16.37;67.13
70198;BME280;57582;-34.876;138.628;2023-05-19T12:42:18;101624;;;16.55;67.14
70198;BME280;57582;-34.876;138.628;2023-05-19T12:45:19;101630;;;16.72;66.47
70198;BME280;57582;-34.876;138.628;2023-05-19T12:48:21;101629;;;16.79;66.07
70198;BME280;57582;-34.876;138.628;2023-05-19T12:51:18;101628;;;16.88;65.68
70198;BME280;57582;-34.876;138.628;2023-05-19T12:54:21;101624;;;16.96;65.43
70198;BME280;57582;-34.876;138.628;2023-05-19T12:57:19;101617;;;17.04;65.08
70198;BME280;57582;-34.876;138.628;2023-05-19T13:00:19;101612;;;17.06;64.91
70198;BME280;57582;-34.876;138.628;2023-05-19T13:03:18;101615;;;17.08;64.62
70198;BME280;57582;-34.876;138.628;2023-05-19T13:06:18;101611;;;17.09;64.48
70198;BME280;57582;-34.876;138.628;2023-05-19T13:09:18;101613;;;17.10;64.10
70198;BME280;57582;-34.876;138.628;2023-05-19T13:12:18;101617;;;17.07;64.45
70198;BME280;57582;-34.876;138.628;2023-05-19T13:15:18;101627;;;17.09;64.35
70198;BME280;57582;-34.876;138.628;2023-05-19T13:18:18;101615;;;17.13;64.15
70198;BME280;57582;-34.876;138.628;2023-05-19T13:21:18;101611;;;16.89;65.01
70198;BME280;57582;-34.876;138.628;2023-05-19T13:24:18;101609;;;16.82;65.02
70198;BME280;57582;-34.876;138.628;2023-05-19T13:27:18;101603;;;16.72;65.17
70198;BME280;57582;-34.876;138.628;2023-05-19T13:30:18;101609;;;16.77;65.26
70198;BME280;57582;-34.876;138.628;2023-05-19T13:33:18;101599;;;16.82;64.80
70198;BME280;57582;-34.876;138.628;2023-05-19T13:36:19;101605;;;16.86;64.40
70198;BME280;57582;-34.876;138.628;2023-05-19T13:39:18;101595;;;16.86;64.24
70198;BME280;57582;-34.876;138.628;2023-05-19T13:42:19;101602;;;16.88;64.28
70198;BME280;57582;-34.876;138.628;2023-05-19T13:45:18;101596;;;16.94;64.10
70198;BME280;57582;-34.876;138.628;2023-05-19T13:48:18;101603;;;16.81;63.93
70198;BME280;57582;-34.876;138.628;2023-05-19T13:51:18;101596;;;16.82;64.04
70198;BME280;57582;-34.876;138.628;2023-05-19T13:54:18;101588;;;16.82;63.83
70198;BME280;57582;-34.876;138.628;2023-05-19T13:57:18;101587;;;16.88;64.06
70198;BME280;57582;-34.876;138.628;2023-05-19T14:00:19;101590;;;16.80;64.25
70198;BME280;57582;-34.876;138.628;2023-05-19T14:03:18;101588;;;16.87;64.09
70198;BME280;57582;-34.876;138.628;2023-05-19T14:06:18;101592;;;16.89;64.04
70198;BME280;57582;-34.876;138.628;2023-05-19T14:09:18;101589;;;16.99;63.93
70198;BME280;57582;-34.876;138.628;2023-05-19T14:12:19;101568;;;16.88;63.90
70198;BME280;57582;-34.876;138.628;2023-05-19T14:15:18;101591;;;17.10;63.73
70198;BME280;57582;-34.876;138.628;2023-05-19T14:18:18;101594;;;17.08;63.56
70198;BME280;57582;-34.876;138.628;2023-05-19T14:21:18;101602;;;17.10;63.82
70198;BME280;57582;-34.876;138.628;2023-05-19T14:24:19;101594;;;17.12;64.00
70198;BME280;57582;-34.876;138.628;2023-05-19T14:27:18;101597;;;17.17;63.96
70198;BME280;57582;-34.876;138.628;2023-05-19T14:30:18;101584;;;17.15;63.90
70198;BME280;57582;-34.876;138.628;2023-05-19T14:33:19;101584;;;17.18;63.99
70198;BME280;57582;-34.876;138.628;2023-05-19T14:36:19;101575;;;17.16;64.02
70198;BME280;57582;-34.876;138.628;2023-05-19T14:39:18;101578;;;17.18;64.05
70198;BME280;57582;-34.876;138.628;2023-05-19T14:42:18;101570;;;17.01;64.48
70198;BME280;57582;-34.876;138.628;2023-05-19T14:45:18;101578;;;17.00;64.32
70198;BME280;57582;-34.876;138.628;2023-05-19T14:48:19;101566;;;16.35;66.76
70198;BME280;57582;-34.876;138.628;2023-05-19T14:51:18;101564;;;16.48;66.26
70198;BME280;57582;-34.876;138.628;2023-05-19T14:54:18;101563;;;16.49;66.76
70198;BME280;57582;-34.876;138.628;2023-05-19T14:57:18;101562;;;16.61;66.58
70198;BME280;57582;-34.876;138.628;2023-05-19T15:00:19;101561;;;16.17;67.73
70198;BME280;57582;-34.876;138.628;2023-05-19T15:03:18;101564;;;16.03;68.77
70198;BME280;57582;-34.876;138.628;2023-05-19T15:06:18;101559;;;16.16;67.67
70198;BME280;57582;-34.876;138.628;2023-05-19T15:09:18;101565;;;16.23;67.25
70198;BME280;57582;-34.876;138.628;2023-05-19T15:12:19;101555;;;16.25;67.22
70198;BME280;57582;-34.876;138.628;2023-05-19T15:15:18;101554;;;16.39;66.96
70198;BME280;57582;-34.876;138.628;2023-05-19T15:18:18;101557;;;16.47;66.38
70198;BME280;57582;-34.876;138.628;2023-05-19T15:21:18;101558;;;16.56;66.31
70198;BME280;57582;-34.876;138.628;2023-05-19T15:24:19;101551;;;16.65;66.11
70198;BME280;57582;-34.876;138.628;2023-05-19T15:27:18;101563;;;16.66;65.94
70198;BME280;57582;-34.876;138.628;2023-05-19T15:30:18;101552;;;16.73;65.92
70198;BME280;57582;-34.876;138.628;2023-05-19T15:33:18;101552;;;16.80;65.91
70198;BME280;57582;-34.876;138.628;2023-05-19T15:36:19;101560;;;16.85;65.74
70198;BME280;57582;-34.876;138.628;2023-05-19T15:39:18;101560;;;16.88;65.47
70198;BME280;57582;-34.876;138.628;2023-05-19T15:42:18;101550;;;16.88;65.52
70198;BME280;57582;-34.876;138.628;2023-05-19T15:45:19;101548;;;16.81;65.58
70198;BME280;57582;-34.876;138.628;2023-05-19T15:48:18;101541;;;16.70;66.01
70198;BME280;57582;-34.876;138.628;2023-05-19T15:51:18;101537;;;16.71;65.98
70198;BME280;57582;-34.876;138.628;2023-05-19T15:54:18;101544;;;16.70;65.92
70198;BME280;57582;-34.876;138.628;2023-05-19T15:57:18;101540;;;16.66;65.80